createdAt,value
2019-06-26T00:00:18.075Z,23.32
2019-06-26T00:01:18.374Z,23.28
2019-06-26T00:02:18.813Z,23.32
2019-06-26T00:03:19.255Z,23.29
2019-06-26T00:04:19.702Z,23.26
2019-06-26T00:05:20.129Z,23.25
2019-06-26T00:06:20.613Z,23.25
2019-06-26T00:07:20.985Z,23.28
2019-06-26T00:08:21.400Z,23.28
2019-06-26T00:09:21.822Z,23.25
2019-06-26T00:10:22.316Z,23.18
2019-06-26T00:11:22.686Z,23.20
2019-06-26T00:12:23.153Z,23.18
2019-06-26T00:13:26.109Z,23.11
2019-06-26T00:14:24.040Z,23.13
2019-06-26T00:15:24.527Z,23.13
2019-06-26T00:16:24.853Z,23.16
2019-06-26T00:17:25.313Z,23.11
2019-06-26T00:18:25.970Z,23.16
2019-06-26T00:19:26.179Z,23.11
2019-06-26T00:20:26.648Z,23.11
2019-06-26T00:21:27.048Z,23.08
2019-06-26T00:22:27.549Z,23.11
2019-06-26T00:23:27.882Z,23.16
2019-06-26T00:24:28.349Z,23.07
2019-06-26T00:25:28.819Z,23.07
2019-06-26T00:26:29.217Z,23.04
2019-06-26T00:27:29.667Z,23.01
2019-06-26T00:28:30.080Z,23.02
2019-06-26T00:29:30.501Z,23.02
2019-06-26T00:30:31.016Z,23.06
2019-06-26T00:31:31.473Z,22.99
2019-06-26T00:32:31.832Z,22.99
2019-06-26T00:33:32.227Z,23.01
2019-06-26T00:34:32.672Z,22.98
2019-06-26T00:35:33.146Z,22.96
2019-06-26T00:36:33.546Z,22.96
2019-06-26T00:37:34.001Z,22.98
2019-06-26T00:38:34.420Z,22.91
2019-06-26T00:39:34.993Z,22.98
2019-06-26T00:40:35.321Z,22.96
2019-06-26T00:41:35.711Z,22.96
2019-06-26T00:42:36.165Z,22.92
2019-06-26T00:43:42.308Z,22.88
2019-06-26T00:44:38.018Z,22.88
2019-06-26T00:45:37.480Z,22.78
2019-06-26T00:46:37.892Z,22.81
2019-06-26T00:47:38.395Z,22.80
2019-06-26T00:48:38.748Z,22.80
2019-06-26T00:49:39.182Z,22.71
2019-06-26T00:50:39.630Z,22.83
2019-06-26T00:51:40.046Z,22.76
2019-06-26T00:52:40.507Z,22.78
2019-06-26T00:53:40.926Z,22.77
2019-06-26T00:54:41.363Z,22.71
2019-06-26T00:55:41.941Z,22.74
2019-06-26T00:56:42.199Z,22.78
2019-06-26T00:57:42.670Z,22.76
2019-06-26T00:58:43.100Z,22.77
2019-06-26T00:59:43.521Z,22.80
2019-06-26T01:00:44.060Z,22.71
2019-06-26T01:01:44.398Z,22.58
2019-06-26T01:02:44.875Z,22.55
2019-06-26T01:03:45.314Z,22.65
2019-06-26T01:04:45.668Z,22.68
2019-06-26T01:05:46.150Z,22.62
2019-06-26T01:06:46.550Z,22.59
2019-06-26T01:07:47.005Z,22.49
2019-06-26T01:08:47.404Z,22.49
2019-06-26T01:09:47.855Z,22.53
2019-06-26T01:10:48.325Z,22.41
2019-06-26T01:11:48.740Z,22.43
2019-06-26T01:12:49.225Z,22.47
2019-06-26T01:13:57.757Z,22.46
2019-06-26T01:14:51.037Z,22.43
2019-06-26T01:15:50.493Z,22.40
2019-06-26T01:16:50.892Z,22.41
2019-06-26T01:17:51.327Z,22.40
2019-06-26T01:18:51.775Z,22.41
2019-06-26T01:19:52.208Z,22.34
2019-06-26T01:20:52.806Z,22.30
2019-06-26T01:21:53.109Z,22.36
2019-06-26T01:22:53.545Z,22.26
2019-06-26T01:23:53.995Z,22.33
2019-06-26T01:24:54.400Z,22.28
2019-06-26T01:25:54.896Z,22.31
2019-06-26T01:26:55.290Z,22.31
2019-06-26T01:27:55.720Z,22.36
2019-06-26T01:28:56.272Z,22.25
2019-06-26T01:29:56.574Z,22.30
2019-06-26T01:30:57.050Z,22.34
2019-06-26T01:31:57.453Z,22.30
2019-06-26T01:32:57.886Z,22.34
2019-06-26T01:33:58.361Z,22.30
2019-06-26T01:34:58.755Z,22.21
2019-06-26T01:35:59.210Z,22.30
2019-06-26T01:36:59.682Z,22.33
2019-06-26T01:38:00.056Z,22.19
2019-06-26T01:39:00.513Z,22.22
2019-06-26T01:40:00.931Z,22.26
2019-06-26T01:41:01.420Z,22.22
2019-06-26T01:42:01.779Z,22.19
2019-06-26T01:43:02.320Z,22.21
2019-06-26T01:44:13.668Z,22.21
2019-06-26T01:45:04.148Z,22.21
2019-06-26T01:46:03.539Z,22.19
2019-06-26T01:47:03.931Z,22.21
2019-06-26T01:48:04.368Z,22.21
2019-06-26T01:49:04.837Z,22.21
2019-06-26T01:50:05.265Z,22.18
2019-06-26T01:51:05.728Z,22.12
2019-06-26T01:52:06.122Z,22.14
2019-06-26T01:53:06.591Z,22.12
2019-06-26T01:54:07.081Z,22.12
2019-06-26T01:55:07.436Z,22.16
2019-06-26T01:56:08.094Z,22.15
2019-06-26T01:57:08.522Z,22.15
2019-06-26T01:58:08.738Z,22.12
2019-06-26T01:59:09.178Z,22.07
2019-06-26T02:00:09.681Z,22.10
2019-06-26T02:01:10.105Z,22.03
2019-06-26T02:02:10.613Z,21.99
2019-06-26T02:03:10.923Z,21.96
2019-06-26T02:04:11.357Z,22.01
2019-06-26T02:05:11.790Z,22.03
2019-06-26T02:06:12.282Z,22.03
2019-06-26T02:07:12.651Z,21.97
2019-06-26T02:08:13.088Z,21.96
2019-06-26T02:09:13.538Z,21.94
2019-06-26T02:10:14.077Z,21.92
2019-06-26T02:11:14.430Z,22.01
2019-06-26T02:12:14.831Z,21.99
2019-06-26T02:13:15.266Z,21.94
2019-06-26T02:14:29.614Z,21.94
2019-06-26T02:15:17.116Z,21.92
2019-06-26T02:16:16.581Z,22.00
2019-06-26T02:17:17.000Z,21.92
2019-06-26T02:18:17.498Z,21.97
2019-06-26T02:19:17.877Z,21.84
2019-06-26T02:20:18.272Z,21.91
2019-06-26T02:21:18.743Z,21.89
2019-06-26T02:22:19.307Z,21.85
2019-06-26T02:23:19.636Z,21.85
2019-06-26T02:24:20.076Z,21.84
2019-06-26T02:25:20.490Z,21.80
2019-06-26T02:26:20.985Z,21.84
2019-06-26T02:27:21.358Z,21.83
2019-06-26T02:28:21.816Z,21.83
2019-06-26T02:29:22.330Z,21.80
2019-06-26T02:30:22.676Z,21.78
2019-06-26T02:31:23.140Z,21.83
2019-06-26T02:32:23.572Z,21.81
2019-06-26T02:33:23.973Z,21.75
2019-06-26T02:34:24.480Z,21.75
2019-06-26T02:35:24.876Z,21.70
2019-06-26T02:36:25.312Z,21.83
2019-06-26T02:37:25.721Z,21.80
2019-06-26T02:38:26.146Z,21.80
2019-06-26T02:39:26.608Z,21.72
2019-06-26T02:40:27.024Z,21.62
2019-06-26T02:41:27.478Z,21.65
2019-06-26T02:42:27.946Z,21.75
2019-06-26T02:43:28.425Z,21.65
2019-06-26T02:44:28.811Z,21.69
2019-06-26T02:45:29.214Z,21.72
2019-06-26T02:46:29.671Z,21.69
2019-06-26T02:47:30.117Z,21.72
2019-06-26T02:48:30.501Z,21.74
2019-06-26T02:49:30.955Z,21.75
2019-06-26T02:50:31.378Z,21.77
2019-06-26T02:51:32.023Z,21.80
2019-06-26T02:52:32.265Z,21.72
2019-06-26T02:53:32.677Z,21.81
2019-06-26T02:54:33.144Z,21.74
2019-06-26T02:55:33.583Z,21.84
2019-06-26T02:56:34.031Z,21.78
2019-06-26T02:57:34.468Z,21.78
2019-06-26T02:58:34.891Z,21.81
2019-06-26T02:59:35.372Z,21.88
2019-06-26T03:00:35.734Z,21.88
2019-06-26T03:01:36.195Z,21.94
2019-06-26T03:02:36.647Z,21.92
2019-06-26T03:03:37.041Z,21.92
2019-06-26T03:04:37.497Z,22.01
2019-06-26T03:05:37.893Z,22.06
2019-06-26T03:06:38.365Z,22.15
2019-06-26T03:07:38.865Z,22.19
2019-06-26T03:08:39.206Z,22.18
2019-06-26T03:09:39.758Z,22.22
2019-06-26T03:10:40.081Z,22.23
2019-06-26T03:11:40.516Z,22.25
2019-06-26T03:12:40.964Z,22.31
2019-06-26T03:13:41.390Z,22.34
2019-06-26T03:14:41.846Z,22.38
2019-06-26T03:15:42.308Z,22.37
2019-06-26T03:16:42.709Z,22.43
2019-06-26T03:17:54.111Z,22.38
2019-06-26T03:18:44.574Z,22.38
2019-06-26T03:19:44.026Z,22.43
2019-06-26T03:20:44.435Z,22.44
2019-06-26T03:21:44.908Z,22.44
2019-06-26T03:22:45.298Z,22.44
2019-06-26T03:23:45.746Z,22.44
2019-06-26T03:24:46.295Z,22.53
2019-06-26T03:25:46.609Z,22.47
2019-06-26T03:26:47.073Z,22.61
2019-06-26T03:27:47.483Z,22.52
2019-06-26T03:28:47.916Z,22.59
2019-06-26T03:29:48.369Z,22.62
2019-06-26T03:30:48.818Z,22.56
2019-06-26T03:31:49.277Z,22.62
2019-06-26T03:32:49.828Z,22.68
2019-06-26T03:33:50.117Z,22.76
2019-06-26T03:34:50.551Z,22.71
2019-06-26T03:35:51.231Z,22.68
2019-06-26T03:36:51.438Z,22.68
2019-06-26T03:37:51.880Z,22.74
2019-06-26T03:38:52.280Z,22.78
2019-06-26T03:39:52.719Z,22.71
2019-06-26T03:40:53.240Z,22.76
2019-06-26T03:41:53.618Z,22.80
2019-06-26T03:42:54.041Z,22.89
2019-06-26T03:43:54.459Z,22.91
2019-06-26T03:44:54.904Z,22.96
2019-06-26T03:45:55.338Z,22.98
2019-06-26T03:46:55.778Z,22.98
2019-06-26T03:47:56.211Z,22.92
2019-06-26T03:48:56.651Z,23.02
2019-06-26T03:49:57.028Z,22.95
2019-06-26T03:50:57.482Z,23.07
2019-06-26T03:51:57.954Z,22.98
2019-06-26T03:52:58.374Z,23.01
2019-06-26T03:53:58.784Z,23.13
2019-06-26T03:54:59.227Z,23.14
2019-06-26T03:55:59.665Z,23.11
2019-06-26T03:57:00.170Z,23.13
2019-06-26T03:58:00.548Z,23.17
2019-06-26T03:59:00.975Z,23.20
2019-06-26T04:00:01.907Z,23.32
2019-06-26T04:01:01.887Z,23.37
2019-06-26T04:02:02.311Z,23.48
2019-06-26T04:03:02.716Z,23.36
2019-06-26T04:04:03.148Z,23.49
2019-06-26T04:05:03.603Z,23.49
2019-06-26T04:06:04.132Z,23.63
2019-06-26T04:07:04.452Z,23.56
2019-06-26T04:08:04.892Z,23.66
2019-06-26T04:09:05.322Z,23.71
2019-06-26T04:10:05.771Z,23.79
2019-06-26T04:11:06.217Z,23.92
2019-06-26T04:12:06.643Z,23.96
2019-06-26T04:13:07.085Z,24.07
2019-06-26T04:14:07.566Z,24.06
2019-06-26T04:15:07.934Z,24.07
2019-06-26T04:16:08.384Z,24.10
2019-06-26T04:17:08.810Z,24.13
2019-06-26T04:18:09.232Z,24.11
2019-06-26T04:19:09.681Z,24.16
2019-06-26T04:20:10.111Z,24.19
2019-06-26T04:21:10.568Z,24.18
2019-06-26T04:22:11.115Z,24.24
2019-06-26T04:23:11.415Z,24.24
2019-06-26T04:24:11.817Z,24.28
2019-06-26T04:25:12.268Z,24.25
2019-06-26T04:26:12.720Z,24.25
2019-06-26T04:27:13.138Z,24.29
2019-06-26T04:28:13.571Z,24.41
2019-06-26T04:29:14.006Z,24.38
2019-06-26T04:30:14.476Z,24.40
2019-06-26T04:31:14.880Z,24.48
2019-06-26T04:32:15.318Z,24.55
2019-06-26T04:33:15.733Z,24.53
2019-06-26T04:34:16.183Z,24.59
2019-06-26T04:35:16.618Z,24.56
2019-06-26T04:36:17.056Z,24.58
2019-06-26T04:37:17.506Z,24.59
2019-06-26T04:38:17.997Z,24.65
2019-06-26T04:39:18.349Z,24.68
2019-06-26T04:40:20.326Z,24.63
2019-06-26T04:41:19.230Z,24.66
2019-06-26T04:42:19.673Z,24.79
2019-06-26T04:43:20.113Z,24.79
2019-06-26T04:44:20.566Z,24.88
2019-06-26T04:45:20.978Z,24.96
2019-06-26T04:46:21.453Z,24.94
2019-06-26T04:47:21.900Z,25.00
2019-06-26T04:48:22.279Z,25.07
2019-06-26T04:49:22.733Z,25.04
2019-06-26T04:50:23.147Z,25.12
2019-06-26T04:51:23.601Z,25.14
2019-06-26T04:52:24.034Z,25.06
2019-06-26T04:53:24.439Z,25.24
2019-06-26T04:54:24.938Z,25.19
2019-06-26T04:55:25.469Z,25.21
2019-06-26T04:56:25.765Z,25.24
2019-06-26T04:57:26.194Z,25.25
2019-06-26T04:58:26.619Z,25.29
2019-06-26T04:59:27.082Z,25.30
2019-06-26T05:00:27.504Z,25.30
2019-06-26T05:01:27.959Z,25.36
2019-06-26T05:02:28.410Z,25.39
2019-06-26T05:03:28.941Z,25.41
2019-06-26T05:04:29.253Z,25.43
2019-06-26T05:05:38.898Z,25.44
2019-06-26T05:06:31.126Z,25.51
2019-06-26T05:07:30.554Z,25.56
2019-06-26T05:08:30.974Z,25.54
2019-06-26T05:09:31.406Z,25.61
2019-06-26T05:10:31.835Z,25.66
2019-06-26T05:11:32.381Z,25.61
2019-06-26T05:12:33.517Z,25.68
2019-06-26T05:13:33.136Z,25.67
2019-06-26T05:14:33.810Z,25.81
2019-06-26T05:15:33.988Z,25.77
2019-06-26T05:16:34.452Z,25.85
2019-06-26T05:17:34.911Z,25.83
2019-06-26T05:18:35.309Z,25.78
2019-06-26T05:19:35.793Z,25.96
2019-06-26T05:20:36.137Z,25.88
2019-06-26T05:21:36.613Z,25.89
2019-06-26T05:22:37.060Z,25.98
2019-06-26T05:23:37.484Z,25.99
2019-06-26T05:24:37.940Z,26.01
2019-06-26T05:25:38.364Z,26.01
2019-06-26T05:26:38.821Z,25.98
2019-06-26T05:27:39.274Z,26.08
2019-06-26T05:28:39.733Z,26.07
2019-06-26T05:29:40.108Z,26.13
2019-06-26T05:30:40.533Z,26.18
2019-06-26T05:31:40.939Z,26.18
2019-06-26T05:32:41.402Z,26.23
2019-06-26T05:33:41.838Z,26.27
2019-06-26T05:34:42.290Z,26.34
2019-06-26T05:35:42.719Z,26.27
2019-06-26T05:36:43.260Z,26.33
2019-06-26T05:37:43.602Z,26.41
2019-06-26T05:38:44.576Z,26.34
2019-06-26T05:39:44.489Z,26.36
2019-06-26T05:40:44.908Z,26.42
2019-06-26T05:41:45.344Z,26.46
2019-06-26T05:42:45.806Z,26.52
2019-06-26T05:43:46.233Z,26.59
2019-06-26T05:44:46.840Z,26.59
2019-06-26T05:45:47.102Z,26.60
2019-06-26T05:46:47.540Z,26.67
2019-06-26T05:47:47.995Z,26.63
2019-06-26T05:48:48.409Z,26.66
2019-06-26T05:49:48.881Z,26.73
2019-06-26T05:50:49.295Z,26.76
2019-06-26T05:51:49.789Z,26.71
2019-06-26T05:52:50.234Z,26.79
2019-06-26T05:53:50.568Z,26.85
2019-06-26T05:54:51.048Z,26.82
2019-06-26T05:55:51.456Z,26.85
2019-06-26T05:56:51.957Z,26.89
2019-06-26T05:57:52.411Z,26.97
2019-06-26T05:58:52.762Z,27.04
2019-06-26T05:59:53.213Z,26.96
2019-06-26T06:00:53.683Z,27.00
2019-06-26T06:01:54.067Z,27.05
2019-06-26T06:02:54.509Z,27.03
2019-06-26T06:03:54.926Z,27.11
2019-06-26T06:04:55.376Z,27.08
2019-06-26T06:05:55.775Z,27.20
2019-06-26T06:06:56.253Z,27.19
2019-06-26T06:07:56.686Z,27.26
2019-06-26T06:08:57.187Z,27.26
2019-06-26T06:09:57.616Z,27.29
2019-06-26T06:10:58.256Z,27.30
2019-06-26T06:11:58.445Z,27.34
2019-06-26T06:12:58.881Z,27.40
2019-06-26T06:13:59.307Z,27.52
2019-06-26T06:14:59.742Z,27.47
2019-06-26T06:16:00.167Z,27.45
2019-06-26T06:17:00.631Z,27.60
2019-06-26T06:18:01.180Z,27.58
2019-06-26T06:19:01.469Z,27.63
2019-06-26T06:20:02.101Z,27.66
2019-06-26T06:21:02.337Z,27.67
2019-06-26T06:22:02.776Z,27.76
2019-06-26T06:23:03.223Z,27.82
2019-06-26T06:24:03.656Z,27.85
2019-06-26T06:25:04.141Z,27.83
2019-06-26T06:26:04.658Z,27.82
2019-06-26T06:27:04.981Z,27.86
2019-06-26T06:28:05.410Z,27.88
2019-06-26T06:29:05.831Z,27.98
2019-06-26T06:30:06.286Z,28.00
2019-06-26T06:31:06.705Z,28.10
2019-06-26T06:32:07.159Z,28.12
2019-06-26T06:33:07.575Z,28.13
2019-06-26T06:34:08.092Z,28.12
2019-06-26T06:35:08.443Z,28.18
2019-06-26T06:36:09.634Z,28.25
2019-06-26T06:37:09.319Z,28.30
2019-06-26T06:38:09.758Z,28.34
2019-06-26T06:39:10.159Z,28.37
2019-06-26T06:40:10.605Z,28.37
2019-06-26T06:41:11.039Z,28.38
2019-06-26T06:42:11.552Z,28.43
2019-06-26T06:43:11.910Z,28.52
2019-06-26T06:44:12.333Z,28.53
2019-06-26T06:45:12.756Z,28.62
2019-06-26T06:46:13.227Z,28.65
2019-06-26T06:47:13.673Z,28.57
2019-06-26T06:48:14.111Z,28.67
2019-06-26T06:49:14.528Z,28.80
2019-06-26T06:50:15.221Z,28.78
2019-06-26T06:51:15.391Z,28.84
2019-06-26T06:52:16.595Z,28.84
2019-06-26T06:53:16.277Z,28.89
2019-06-26T06:54:16.697Z,28.87
2019-06-26T06:55:17.135Z,28.92
2019-06-26T06:56:17.580Z,28.96
2019-06-26T06:57:18.017Z,28.97
2019-06-26T06:58:18.495Z,29.07
2019-06-26T06:59:18.964Z,29.05
2019-06-26T07:00:19.317Z,29.13
2019-06-26T07:01:19.753Z,29.20
2019-06-26T07:02:20.585Z,29.27
2019-06-26T07:03:20.672Z,29.25
2019-06-26T07:04:21.089Z,29.28
2019-06-26T07:05:21.522Z,29.39
2019-06-26T07:06:21.982Z,29.39
2019-06-26T07:07:22.508Z,29.46
2019-06-26T07:08:22.841Z,29.42
2019-06-26T07:09:23.261Z,29.49
2019-06-26T07:10:23.695Z,29.58
2019-06-26T07:11:24.148Z,29.57
2019-06-26T07:12:24.576Z,29.62
2019-06-26T07:13:25.025Z,29.74
2019-06-26T07:14:25.452Z,29.73
2019-06-26T07:15:25.961Z,29.74
2019-06-26T07:16:26.324Z,29.81
2019-06-26T07:17:26.748Z,29.94
2019-06-26T07:18:27.178Z,29.95
2019-06-26T07:19:27.613Z,29.87
2019-06-26T07:20:28.045Z,29.92
2019-06-26T07:21:28.497Z,30.03
2019-06-26T07:22:28.931Z,30.06
2019-06-26T07:23:29.404Z,30.16
2019-06-26T07:24:29.758Z,30.17
2019-06-26T07:25:30.212Z,30.20
2019-06-26T07:26:30.659Z,30.26
2019-06-26T07:27:31.095Z,30.16
2019-06-26T07:28:31.539Z,30.20
2019-06-26T07:29:31.967Z,30.18
2019-06-26T07:30:32.357Z,30.27
2019-06-26T07:31:32.892Z,30.27
2019-06-26T07:32:33.249Z,30.33
2019-06-26T07:33:33.717Z,30.48
2019-06-26T07:34:34.113Z,30.51
2019-06-26T07:35:34.579Z,30.51
2019-06-26T07:36:35.000Z,30.55
2019-06-26T07:37:35.449Z,30.58
2019-06-26T07:38:35.883Z,30.65
2019-06-26T07:39:36.340Z,30.73
2019-06-26T07:40:36.795Z,30.83
2019-06-26T07:41:37.187Z,30.81
2019-06-26T07:42:37.623Z,30.83
2019-06-26T07:43:38.056Z,30.88
2019-06-26T07:44:38.472Z,30.96
2019-06-26T07:45:38.916Z,31.07
2019-06-26T07:46:39.349Z,31.10
2019-06-26T07:47:43.504Z,31.15
2019-06-26T07:48:40.362Z,31.07
2019-06-26T07:49:40.651Z,31.22
2019-06-26T07:50:41.076Z,31.15
2019-06-26T07:51:41.506Z,31.33
2019-06-26T07:52:41.956Z,31.26
2019-06-26T07:53:42.402Z,31.36
2019-06-26T07:54:42.829Z,31.45
2019-06-26T07:55:43.616Z,31.39
2019-06-26T07:56:43.807Z,31.42
2019-06-26T07:57:44.138Z,31.47
2019-06-26T07:58:44.597Z,31.59
2019-06-26T07:59:45.034Z,31.51
2019-06-26T08:00:45.486Z,31.60
2019-06-26T08:01:45.917Z,31.64
2019-06-26T08:02:46.334Z,31.64
2019-06-26T08:03:46.786Z,31.72
2019-06-26T08:04:47.254Z,31.73
2019-06-26T08:05:47.635Z,31.73
2019-06-26T08:06:48.091Z,31.86
2019-06-26T08:07:48.522Z,31.79
2019-06-26T08:08:48.926Z,31.90
2019-06-26T08:09:49.389Z,31.95
2019-06-26T08:10:49.829Z,32.08
2019-06-26T08:11:50.277Z,32.12
2019-06-26T08:12:50.842Z,32.12
2019-06-26T08:13:51.149Z,32.22
2019-06-26T08:14:51.545Z,32.22
2019-06-26T08:15:51.986Z,32.24
2019-06-26T08:16:52.473Z,32.31
2019-06-26T08:18:00.691Z,32.26
2019-06-26T08:18:54.316Z,32.26
2019-06-26T08:19:53.765Z,32.34
2019-06-26T08:21:10.842Z,32.39
2019-06-26T08:21:55.684Z,32.41
2019-06-26T08:22:55.063Z,32.51
2019-06-26T08:23:55.473Z,32.61
2019-06-26T08:24:55.936Z,32.56
2019-06-26T08:25:56.335Z,32.67
2019-06-26T08:26:56.790Z,32.67
2019-06-26T08:27:57.241Z,32.83
2019-06-26T08:28:57.672Z,32.72
2019-06-26T08:29:58.236Z,32.75
2019-06-26T08:30:58.509Z,32.76
2019-06-26T08:31:59.205Z,32.90
2019-06-26T08:32:59.417Z,33.01
2019-06-26T08:33:59.822Z,33.00
2019-06-26T08:35:00.322Z,33.09
2019-06-26T08:36:00.694Z,33.20
2019-06-26T08:37:01.152Z,33.22
2019-06-26T08:38:09.767Z,33.20
2019-06-26T08:39:02.998Z,33.13
2019-06-26T08:40:02.448Z,33.13
2019-06-26T08:41:02.865Z,33.17
2019-06-26T08:42:03.328Z,33.19
2019-06-26T08:43:03.732Z,33.29
2019-06-26T08:44:04.179Z,33.17
2019-06-26T08:45:04.664Z,33.28
2019-06-26T08:46:05.102Z,33.23
2019-06-26T08:47:05.475Z,33.22
2019-06-26T08:48:17.329Z,33.32
2019-06-26T08:49:20.949Z,33.35
2019-06-26T08:50:07.783Z,33.38
2019-06-26T08:51:07.216Z,33.53
2019-06-26T08:52:07.654Z,33.39
2019-06-26T08:53:08.088Z,33.55
2019-06-26T08:54:08.552Z,33.60
2019-06-26T08:55:08.940Z,33.65
2019-06-26T08:56:09.372Z,33.69
2019-06-26T08:57:09.812Z,33.76
2019-06-26T08:58:10.269Z,33.85
2019-06-26T08:59:10.671Z,33.75
2019-06-26T09:00:11.201Z,33.73
2019-06-26T09:01:11.553Z,33.70
2019-06-26T09:02:12.028Z,33.81
2019-06-26T09:03:12.529Z,33.77
2019-06-26T09:04:12.878Z,33.72
2019-06-26T09:05:13.318Z,33.76
2019-06-26T09:06:13.747Z,33.79
2019-06-26T09:07:14.198Z,33.88
2019-06-26T09:08:14.775Z,33.91
2019-06-26T09:09:15.087Z,34.00
2019-06-26T09:10:15.553Z,33.98
2019-06-26T09:11:16.073Z,34.07
2019-06-26T09:12:16.391Z,34.09
2019-06-26T09:13:16.875Z,34.09
2019-06-26T09:14:17.265Z,34.18
2019-06-26T09:15:17.716Z,34.16
2019-06-26T09:16:18.126Z,34.21
2019-06-26T09:17:18.562Z,34.37
2019-06-26T09:18:31.096Z,34.38
2019-06-26T09:19:20.615Z,34.38
2019-06-26T09:20:19.924Z,34.44
2019-06-26T09:21:20.317Z,34.44
2019-06-26T09:22:20.769Z,34.53
2019-06-26T09:23:21.244Z,34.51
2019-06-26T09:24:21.637Z,34.53
2019-06-26T09:25:22.665Z,34.56
2019-06-26T09:26:22.508Z,34.59
2019-06-26T09:27:22.983Z,34.60
2019-06-26T09:28:23.395Z,34.58
2019-06-26T09:29:24.200Z,34.79
2019-06-26T09:30:24.258Z,34.96
2019-06-26T09:31:24.667Z,35.01
2019-06-26T09:32:25.090Z,34.96
2019-06-26T09:33:25.559Z,35.00
2019-06-26T09:34:25.976Z,35.04
2019-06-26T09:35:26.534Z,34.86
2019-06-26T09:36:26.822Z,34.91
2019-06-26T09:37:27.265Z,34.78
2019-06-26T09:38:27.741Z,34.82
2019-06-26T09:39:28.115Z,34.73
2019-06-26T09:40:31.595Z,34.82
2019-06-26T09:41:29.052Z,34.89
2019-06-26T09:42:29.447Z,35.00
2019-06-26T09:43:29.955Z,35.13
2019-06-26T09:44:30.371Z,35.16
2019-06-26T09:45:30.769Z,35.30
2019-06-26T09:46:31.181Z,35.30
2019-06-26T09:47:31.607Z,35.34
2019-06-26T09:48:32.100Z,35.35
2019-06-26T09:49:32.536Z,35.34
2019-06-26T09:50:32.925Z,35.22
2019-06-26T09:51:33.381Z,35.19
2019-06-26T09:52:33.917Z,35.34
2019-06-26T09:53:45.939Z,35.37
2019-06-26T09:54:35.649Z,35.34
2019-06-26T09:55:35.114Z,35.38
2019-06-26T09:56:35.546Z,35.31
2019-06-26T09:57:36.063Z,35.38
2019-06-26T09:58:36.439Z,35.35
2019-06-26T09:59:36.852Z,35.42
2019-06-26T10:00:37.431Z,35.44
2019-06-26T10:01:37.734Z,35.44
2019-06-26T10:02:38.195Z,35.49
2019-06-26T10:03:38.609Z,35.52
2019-06-26T10:04:39.028Z,35.56
2019-06-26T10:05:39.450Z,35.47
2019-06-26T10:06:39.883Z,35.60
2019-06-26T10:07:40.357Z,35.69
2019-06-26T10:08:40.878Z,35.74
2019-06-26T10:09:41.245Z,35.72
2019-06-26T10:10:41.623Z,35.81
2019-06-26T10:11:42.134Z,35.86
2019-06-26T10:12:42.539Z,35.84
2019-06-26T10:13:42.965Z,35.88
2019-06-26T10:14:47.838Z,35.79
2019-06-26T10:15:43.825Z,35.90
2019-06-26T10:16:44.326Z,35.87
2019-06-26T10:17:44.692Z,36.00
2019-06-26T10:18:45.149Z,36.01
2019-06-26T10:19:45.568Z,36.06
2019-06-26T10:20:46.005Z,36.01
2019-06-26T10:21:46.467Z,36.01
2019-06-26T10:22:46.865Z,36.05
2019-06-26T10:23:47.309Z,35.98
2019-06-26T10:24:47.814Z,35.97
2019-06-26T10:25:48.203Z,36.03
2019-06-26T10:26:48.669Z,35.94
2019-06-26T10:27:49.069Z,35.97
2019-06-26T10:28:49.529Z,35.98
2019-06-26T10:29:49.922Z,35.98
2019-06-26T10:30:50.417Z,35.97
2019-06-26T10:31:50.851Z,35.79
2019-06-26T10:32:51.255Z,35.81
2019-06-26T10:33:51.805Z,35.81
2019-06-26T10:34:52.172Z,35.71
2019-06-26T10:35:52.544Z,35.63
2019-06-26T10:36:53.026Z,35.74
2019-06-26T10:37:53.423Z,35.69
2019-06-26T10:38:53.868Z,35.59
2019-06-26T10:39:54.284Z,35.66
2019-06-26T10:40:54.711Z,35.63
2019-06-26T10:41:55.393Z,35.61
2019-06-26T10:42:55.591Z,35.69
2019-06-26T10:43:56.044Z,35.60
2019-06-26T10:44:56.463Z,35.69
2019-06-26T10:45:56.905Z,35.76
2019-06-26T10:46:57.399Z,35.82
2019-06-26T10:47:57.793Z,35.93
2019-06-26T10:48:58.243Z,36.01
2019-06-26T10:49:58.751Z,36.00
2019-06-26T10:50:59.228Z,36.03
2019-06-26T10:51:59.570Z,36.03
2019-06-26T10:52:59.960Z,36.00
2019-06-26T10:54:00.395Z,35.91
2019-06-26T10:55:00.842Z,35.98
2019-06-26T10:56:01.278Z,36.01
2019-06-26T10:57:01.723Z,36.08
2019-06-26T10:58:02.187Z,36.31
2019-06-26T10:59:02.574Z,36.26
2019-06-26T11:00:02.994Z,36.22
2019-06-26T11:01:03.445Z,36.20
2019-06-26T11:02:03.881Z,36.24
2019-06-26T11:03:04.284Z,36.17
2019-06-26T11:04:04.754Z,36.11
2019-06-26T11:05:05.195Z,36.09
2019-06-26T11:06:05.631Z,36.06
2019-06-26T11:07:06.090Z,36.01
2019-06-26T11:08:06.495Z,36.13
2019-06-26T11:09:06.953Z,36.17
2019-06-26T11:10:07.422Z,36.18
2019-06-26T11:11:07.834Z,36.38
2019-06-26T11:12:08.295Z,36.44
2019-06-26T11:13:08.705Z,36.44
2019-06-26T11:14:09.158Z,36.55
2019-06-26T11:15:09.687Z,36.38
2019-06-26T11:16:10.047Z,36.47
2019-06-26T11:17:10.496Z,36.41
2019-06-26T11:18:10.914Z,36.44
2019-06-26T11:19:11.344Z,36.33
2019-06-26T11:20:11.815Z,36.33
2019-06-26T11:21:12.251Z,36.35
2019-06-26T11:22:12.722Z,36.44
2019-06-26T11:23:13.264Z,36.53
2019-06-26T11:24:13.543Z,36.55
2019-06-26T11:25:14.028Z,36.65
2019-06-26T11:26:14.418Z,36.57
2019-06-26T11:27:14.869Z,36.65
2019-06-26T11:28:15.288Z,36.81
2019-06-26T11:29:15.733Z,36.89
2019-06-26T11:30:16.186Z,36.76
2019-06-26T11:31:16.736Z,36.72
2019-06-26T11:32:17.061Z,36.50
2019-06-26T11:33:17.485Z,36.53
2019-06-26T11:34:17.939Z,36.59
2019-06-26T11:35:18.353Z,36.78
2019-06-26T11:36:18.930Z,36.94
2019-06-26T11:37:22.645Z,37.11
2019-06-26T11:38:19.676Z,37.18
2019-06-26T11:39:20.182Z,37.31
2019-06-26T11:40:20.545Z,37.48
2019-06-26T11:41:20.959Z,37.25
2019-06-26T11:42:21.431Z,37.41
2019-06-26T11:43:21.860Z,37.41
2019-06-26T11:44:22.314Z,37.36
2019-06-26T11:45:22.751Z,37.31
2019-06-26T11:46:23.164Z,37.41
2019-06-26T11:47:23.659Z,37.53
2019-06-26T11:48:24.021Z,37.53
2019-06-26T11:49:24.470Z,37.58
2019-06-26T11:50:25.162Z,37.47
2019-06-26T11:51:25.338Z,37.63
2019-06-26T11:52:25.793Z,37.79
2019-06-26T11:53:26.195Z,37.94
2019-06-26T11:54:26.667Z,37.83
2019-06-26T11:55:27.138Z,37.57
2019-06-26T11:56:27.608Z,37.53
2019-06-26T11:57:28.027Z,37.60
2019-06-26T11:58:28.506Z,37.43
2019-06-26T11:59:29.077Z,37.38
2019-06-26T12:00:29.290Z,37.43
2019-06-26T12:12:02.538Z,37.83
2019-06-26T12:12:37.895Z,37.73
2019-06-26T12:13:38.313Z,37.82
2019-06-26T12:17:47.464Z,37.64
2019-06-26T12:18:09.866Z,37.47
2019-06-26T12:19:10.395Z,37.43
2019-06-26T12:20:18.370Z,37.48
2019-06-26T12:21:12.219Z,37.64
2019-06-26T12:22:11.716Z,37.48
2019-06-26T12:23:12.072Z,37.33
2019-06-26T12:24:12.538Z,37.31
2019-06-26T12:25:12.994Z,37.21
2019-06-26T12:26:13.408Z,37.21
2019-06-26T12:27:13.813Z,37.34
2019-06-26T12:28:14.296Z,37.26
2019-06-26T12:29:14.728Z,37.00
2019-06-26T12:30:15.446Z,36.91
2019-06-26T12:31:15.578Z,36.81
2019-06-26T12:32:16.013Z,36.88
2019-06-26T12:33:16.460Z,36.89
2019-06-26T12:34:16.916Z,36.99
2019-06-26T12:35:17.357Z,36.88
2019-06-26T12:36:17.804Z,36.96
2019-06-26T12:37:18.214Z,37.07
2019-06-26T12:38:18.692Z,37.25
2019-06-26T12:39:19.087Z,37.22
2019-06-26T12:40:19.529Z,37.14
2019-06-26T12:41:19.970Z,36.82
2019-06-26T12:42:20.371Z,36.73
2019-06-26T12:43:20.807Z,36.72
2019-06-26T12:44:21.267Z,36.69
2019-06-26T12:45:21.736Z,36.62
2019-06-26T12:46:22.213Z,36.55
2019-06-26T12:47:22.542Z,36.55
2019-06-26T12:48:22.963Z,36.66
2019-06-26T12:49:23.439Z,36.69
2019-06-26T12:50:34.576Z,36.88
2019-06-26T12:51:25.346Z,36.84
2019-06-26T12:52:24.735Z,36.99
2019-06-26T12:53:25.166Z,37.04
2019-06-26T12:54:25.637Z,37.06
2019-06-26T12:55:26.039Z,37.06
2019-06-26T12:56:26.497Z,37.06
2019-06-26T12:57:26.921Z,36.82
2019-06-26T12:58:27.356Z,36.69
2019-06-26T12:59:27.933Z,36.62
2019-06-26T13:00:28.226Z,36.51
2019-06-26T13:01:28.664Z,36.57
2019-06-26T13:02:29.139Z,36.48
2019-06-26T13:03:29.633Z,36.43
2019-06-26T13:04:30.047Z,36.38
2019-06-26T13:05:30.460Z,36.32
2019-06-26T13:06:30.858Z,36.17
2019-06-26T13:07:31.285Z,36.38
2019-06-26T13:08:31.724Z,36.53
2019-06-26T13:09:32.176Z,36.57
2019-06-26T13:10:48.096Z,36.69